createdAt,value
2022-12-19T00:04:40.981Z,6919.31588
2022-12-19T00:19:43.183Z,7289.11832
2022-12-19T00:34:45.398Z,7398.6933
2022-12-19T00:49:48.936Z,7476.88292
2022-12-19T01:04:52.628Z,7910.55256
2022-12-19T01:19:55.080Z,7796.14375
2022-12-19T01:34:57.454Z,7336.35823
2022-12-19T01:49:59.669Z,7628.03284
2022-12-19T02:05:01.913Z,8149.74852
2022-12-19T02:20:04.279Z,8984.12751
2022-12-19T02:35:06.479Z,10801.5273
2022-12-19T02:50:08.747Z,9617.67259
2022-12-19T03:05:11.102Z,8768.39711
2022-12-19T03:20:13.490Z,9809.3593
2022-12-19T03:35:15.738Z,8899.37159
2022-12-19T03:50:18.012Z,9449.08234
2022-12-19T04:05:20.206Z,10272.23287
2022-12-19T04:20:22.410Z,9666.95187
2022-12-19T04:35:24.677Z,9106.99972
2022-12-19T04:50:27.088Z,10394.85823
2022-12-19T05:05:29.463Z,11706.30879
2022-12-19T05:20:31.807Z,12535.99179
2022-12-19T05:35:34.160Z,12535.99179
2022-12-19T05:50:36.499Z,12535.99179
2022-12-19T06:05:38.742Z,12535.99179
2022-12-19T06:20:40.969Z,12535.99179
2022-12-19T06:35:43.389Z,12535.99179
2022-12-19T06:50:45.572Z,12535.99179
2022-12-19T07:05:47.847Z,12535.99179
2022-12-19T07:20:50.453Z,12535.99179
2022-12-19T07:35:52.666Z,12535.99179
2022-12-19T07:50:54.901Z,12535.99179
2022-12-19T08:05:57.170Z,12535.99179
2022-12-19T08:20:59.383Z,10958.37426
2022-12-19T08:36:01.669Z,10017.69967
2022-12-19T08:51:03.860Z,11853.40376
2022-12-19T09:06:09.346Z,12535.99179
2022-12-19T09:21:14.382Z,12535.99179
2022-12-19T09:36:16.733Z,12535.99179
2022-12-19T09:51:18.993Z,12535.99179
2022-12-19T10:07:22.063Z,12535.99179
2022-12-19T10:22:29.916Z,12535.99179
2022-12-19T10:37:42.320Z,12535.99179
2022-12-19T10:52:49.722Z,12535.99179
2022-12-19T11:07:51.962Z,12535.99179
2022-12-19T11:29:47.126Z,12535.99179
2022-12-19T11:46:03.995Z,12535.99179
2022-12-19T12:01:06.229Z,12535.99179
2022-12-19T12:29:21.164Z,12535.99179
2022-12-19T12:46:40.421Z,12535.99179
2022-12-19T13:01:42.906Z,12535.99179
2022-12-19T13:16:45.324Z,12535.99179
2022-12-19T13:31:47.687Z,12535.99179
2022-12-19T13:46:50.168Z,12535.99179
2022-12-19T14:01:52.605Z,12535.99179
2022-12-19T14:16:54.929Z,12535.99179
2022-12-19T14:32:23.796Z,12535.99179
2022-12-19T14:54:04.973Z,12535.99179
2022-12-19T15:11:00.906Z,12535.99179
2022-12-19T15:26:14.521Z,12535.99179
2022-12-19T15:41:16.759Z,12535.99179
2022-12-19T15:56:18.975Z,12535.99179
2022-12-19T16:11:21.222Z,12535.99179
2022-12-19T16:26:23.433Z,12535.99179
2022-12-19T16:41:25.704Z,12535.99179
2022-12-19T16:56:28.020Z,12535.99179
2022-12-19T17:11:30.483Z,12535.99179
2022-12-19T17:26:32.728Z,12535.99179
2022-12-19T17:41:34.991Z,12535.99179
2022-12-19T17:56:37.401Z,12535.99179
2022-12-19T18:11:42.048Z,12535.99179
2022-12-19T18:26:44.746Z,12535.99179
2022-12-19T18:41:47.030Z,12535.99179
2022-12-19T18:56:49.241Z,12535.99179
2022-12-19T19:11:51.484Z,12535.99179
2022-12-19T19:26:53.751Z,12535.99179
2022-12-19T19:41:56.032Z,12535.99179
2022-12-19T19:56:58.519Z,12535.99179
2022-12-19T20:12:00.754Z,12535.99179
2022-12-19T20:27:03.026Z,12535.99179
2022-12-19T20:42:05.233Z,12535.99179
2022-12-19T20:57:07.497Z,12535.99179
2022-12-19T21:12:09.758Z,12535.99179
2022-12-19T21:27:11.934Z,12535.99179
2022-12-19T21:42:14.159Z,12535.99179
2022-12-19T21:57:16.398Z,12068.23091
2022-12-19T22:12:18.682Z,12535.99179
2022-12-19T22:27:20.895Z,12535.99179
2022-12-19T22:42:23.108Z,12535.99179
2022-12-19T22:57:25.308Z,12535.99179
2022-12-19T23:12:27.529Z,12535.99179
2022-12-19T23:27:29.758Z,12535.99179
2022-12-19T23:42:32.012Z,12535.99179
2022-12-19T23:57:34.293Z,12535.99179
